createdAt,value
2023-03-29T00:16:01.225Z,3.9
2023-03-29T00:45:57.532Z,4.4
2023-03-29T01:15:55.416Z,5.1
2023-03-29T01:46:00.696Z,5.6
2023-03-29T02:15:56.891Z,5.5
2023-03-29T02:45:58.781Z,6.1
2023-03-29T03:15:57.207Z,6.5
2023-03-29T03:45:57.804Z,6.9
2023-03-29T04:16:01.893Z,6.7
2023-03-29T04:45:59.110Z,8.3
2023-03-29T05:16:01.693Z,8
2023-03-29T05:46:00.811Z,6.8
2023-03-29T06:16:01.803Z,8.2
2023-03-29T06:46:04.186Z,8.3
2023-03-29T07:16:02.226Z,11.5
2023-03-29T07:46:10.350Z,12.5
2023-03-29T08:16:04.381Z,13.4
2023-03-29T08:46:14.098Z,18.6
2023-03-29T09:16:13.788Z,17.7
2023-03-29T09:46:19.820Z,17.9
2023-03-29T10:16:15.589Z,18.6
2023-03-29T10:46:15.087Z,23.7
2023-03-29T11:16:17.283Z,23.9
2023-03-29T11:46:19.484Z,21.7
2023-03-29T12:16:17.819Z,17.9
2023-03-29T12:46:21.147Z,14
2023-03-29T13:16:25.047Z,13.5
2023-03-29T13:46:40.903Z,17.6
2023-03-29T14:16:23.238Z,14.6
2023-03-29T14:46:27.480Z,12.3
2023-03-29T15:16:28.099Z,15.3
2023-03-29T15:46:28.759Z,17.2
2023-03-29T16:16:33.189Z,15.5
2023-03-29T16:46:31.853Z,15.3
2023-03-29T17:16:36.071Z,16.5
2023-03-29T17:46:34.861Z,16.9
2023-03-29T18:16:36.192Z,16.4
2023-03-29T18:46:38.492Z,12.6
2023-03-29T19:16:41.479Z,10.9
2023-03-29T19:46:40.465Z,10.2
2023-03-29T20:16:45.687Z,9.1
2023-03-29T20:46:54.302Z,8.9
2023-03-29T21:16:44.332Z,9.1
2023-03-29T21:46:44.981Z,11.3
2023-03-29T22:16:47.966Z,11
2023-03-29T22:46:47.795Z,11.8
2023-03-29T23:16:48.688Z,8.9
2023-03-29T23:46:49.948Z,9.2
